createdAt,value
2018-11-11T00:00:15.079Z,12.87
2018-11-11T00:01:15.089Z,12.76
2018-11-11T00:02:15.090Z,12.83
2018-11-11T00:03:15.086Z,12.83
2018-11-11T00:04:15.074Z,12.83
2018-11-11T00:05:15.092Z,12.82
2018-11-11T00:06:15.086Z,12.85
2018-11-11T00:07:15.275Z,12.86
2018-11-11T00:08:15.285Z,12.90
2018-11-11T00:09:15.072Z,12.86
2018-11-11T00:10:15.073Z,12.86
2018-11-11T00:11:15.067Z,12.85
2018-11-11T00:12:15.271Z,12.91
2018-11-11T00:13:15.078Z,12.86
2018-11-11T00:14:15.066Z,12.78
2018-11-11T00:15:15.066Z,12.76
2018-11-11T00:16:15.062Z,12.78
2018-11-11T00:17:15.075Z,12.83
2018-11-11T00:18:15.074Z,12.76
2018-11-11T00:19:15.060Z,12.80
2018-11-11T00:20:15.062Z,12.86
2018-11-11T00:21:15.073Z,12.82
2018-11-11T00:22:15.060Z,12.80
2018-11-11T00:23:15.083Z,12.78
2018-11-11T00:24:15.059Z,12.90
2018-11-11T00:25:15.059Z,12.90
2018-11-11T00:26:15.280Z,12.82
2018-11-11T00:27:15.058Z,12.87
2018-11-11T00:28:15.254Z,12.93
2018-11-11T00:29:15.050Z,12.90
2018-11-11T00:30:15.064Z,12.76
2018-11-11T00:31:15.063Z,12.79
2018-11-11T00:32:15.060Z,12.78
2018-11-11T00:33:15.047Z,12.79
2018-11-11T00:34:15.059Z,12.82
2018-11-11T00:35:15.062Z,12.93
2018-11-11T00:36:15.045Z,12.87
2018-11-11T00:37:15.057Z,12.78
2018-11-11T00:38:15.045Z,12.93
2018-11-11T00:39:15.045Z,12.82
2018-11-11T00:40:15.042Z,12.93
2018-11-11T00:41:15.053Z,12.79
2018-11-11T00:42:15.038Z,12.80
2018-11-11T00:43:15.053Z,12.87
2018-11-11T00:44:15.249Z,12.83
2018-11-11T00:45:15.049Z,12.85
2018-11-11T00:46:15.048Z,12.87
2018-11-11T00:47:15.047Z,12.87
2018-11-11T00:48:15.059Z,12.82
2018-11-11T00:49:15.060Z,12.94
2018-11-11T00:50:15.104Z,12.79
2018-11-11T00:51:15.045Z,12.79
2018-11-11T00:52:15.029Z,12.80
2018-11-11T00:53:15.249Z,12.87
2018-11-11T00:54:15.054Z,12.91
2018-11-11T00:55:15.029Z,12.94
2018-11-11T00:56:15.039Z,12.85
2018-11-11T00:57:15.025Z,12.97
2018-11-11T00:58:15.036Z,12.97
2018-11-11T00:59:15.036Z,12.98
2018-11-11T01:00:15.023Z,12.97
2018-11-11T01:01:15.025Z,13.00
2018-11-11T01:02:15.032Z,13.00
2018-11-11T01:03:15.036Z,12.94
2018-11-11T01:04:15.028Z,12.95
2018-11-11T01:05:15.043Z,13.00
2018-11-11T01:06:15.026Z,13.03
2018-11-11T01:07:15.218Z,12.98
2018-11-11T01:08:15.035Z,13.00
2018-11-11T01:09:15.020Z,13.01
2018-11-11T01:10:15.034Z,12.91
2018-11-11T01:11:15.039Z,12.95
2018-11-11T01:12:15.081Z,12.86
2018-11-11T01:13:15.008Z,12.90
2018-11-11T01:14:15.010Z,12.83
2018-11-11T01:15:15.010Z,12.95
2018-11-11T01:16:15.026Z,12.90
2018-11-11T01:17:15.002Z,12.94
2018-11-11T01:18:15.000Z,12.91
2018-11-11T01:19:14.998Z,12.87
2018-11-11T01:20:15.001Z,12.87
2018-11-11T01:21:14.995Z,12.90
2018-11-11T01:22:15.005Z,12.94
2018-11-11T01:23:15.211Z,12.94
2018-11-11T01:24:14.994Z,12.95
2018-11-11T01:25:15.010Z,12.95
2018-11-11T01:26:15.002Z,13.00
2018-11-11T01:27:14.992Z,12.90
2018-11-11T01:28:14.989Z,12.94
2018-11-11T01:29:15.203Z,12.87
2018-11-11T01:30:14.988Z,12.93
2018-11-11T01:31:14.995Z,12.94
2018-11-11T01:32:15.188Z,12.85
2018-11-11T01:33:15.012Z,12.85
2018-11-11T01:34:15.182Z,12.87
2018-11-11T01:35:14.986Z,12.80
2018-11-11T01:36:14.995Z,12.85
2018-11-11T01:37:14.992Z,12.97
2018-11-11T01:38:14.987Z,12.82
2018-11-11T01:39:14.987Z,12.80
2018-11-11T01:40:14.997Z,12.90
2018-11-11T01:41:14.973Z,12.85
2018-11-11T01:42:14.970Z,12.86
2018-11-11T01:43:15.174Z,12.83
2018-11-11T01:44:14.976Z,12.90
2018-11-11T01:45:15.002Z,12.79
2018-11-11T01:46:14.982Z,12.80
2018-11-11T01:47:14.978Z,12.83
2018-11-11T01:48:14.969Z,12.86
2018-11-11T01:49:14.964Z,12.78
2018-11-11T01:50:14.960Z,12.79
2018-11-11T01:51:14.960Z,12.75
2018-11-11T01:52:14.969Z,12.79
2018-11-11T01:53:14.958Z,12.76
2018-11-11T01:54:15.164Z,12.79
2018-11-11T01:55:14.967Z,12.82
2018-11-11T01:56:15.158Z,12.78
2018-11-11T01:57:14.976Z,12.78
2018-11-11T01:58:14.968Z,12.73
2018-11-11T01:59:14.952Z,12.72
2018-11-11T02:00:14.968Z,12.72
2018-11-11T02:01:14.956Z,12.76
2018-11-11T02:02:15.158Z,12.73
2018-11-11T02:03:14.971Z,12.65
2018-11-11T02:04:14.956Z,12.62
2018-11-11T02:05:14.949Z,12.65
2018-11-11T02:06:14.945Z,12.64
2018-11-11T02:07:14.955Z,12.78
2018-11-11T02:08:14.939Z,12.76
2018-11-11T02:09:14.940Z,12.70
2018-11-11T02:10:14.943Z,12.70
2018-11-11T02:11:14.936Z,12.64
2018-11-11T02:12:14.953Z,12.72
2018-11-11T02:13:15.141Z,12.80
2018-11-11T02:14:14.963Z,12.65
2018-11-11T02:15:15.148Z,12.70
2018-11-11T02:16:14.933Z,12.78
2018-11-11T02:17:14.957Z,12.70
2018-11-11T02:18:14.949Z,12.65
2018-11-11T02:19:14.926Z,12.65
2018-11-11T02:20:15.134Z,12.70
2018-11-11T02:21:15.055Z,12.67
2018-11-11T02:22:14.925Z,12.78
2018-11-11T02:23:14.946Z,12.70
2018-11-11T02:24:14.922Z,12.72
2018-11-11T02:25:14.947Z,12.75
2018-11-11T02:26:14.920Z,12.68
2018-11-11T02:27:15.133Z,12.70
2018-11-11T02:28:15.123Z,12.73
2018-11-11T02:29:14.916Z,12.68
2018-11-11T02:30:14.926Z,12.75
2018-11-11T02:31:15.136Z,12.73
2018-11-11T02:32:14.923Z,12.75
2018-11-11T02:33:14.927Z,12.73
2018-11-11T02:34:14.931Z,12.70
2018-11-11T02:35:15.125Z,12.79
2018-11-11T02:36:14.910Z,12.78
2018-11-11T02:37:15.000Z,12.76
2018-11-11T02:38:15.126Z,12.79
2018-11-11T02:39:14.926Z,12.72
2018-11-11T02:40:14.916Z,12.76
2018-11-11T02:41:15.102Z,12.70
2018-11-11T02:42:14.903Z,12.82
2018-11-11T02:43:14.915Z,12.64
2018-11-11T02:44:14.921Z,12.76
2018-11-11T02:45:14.906Z,12.73
2018-11-11T02:46:14.910Z,12.70
2018-11-11T02:47:14.929Z,12.75
2018-11-11T02:48:14.893Z,12.90
2018-11-11T02:49:14.905Z,12.79
2018-11-11T02:50:14.905Z,12.76
2018-11-11T02:51:14.908Z,12.75
2018-11-11T02:52:14.899Z,12.78
2018-11-11T02:53:15.090Z,12.73
2018-11-11T02:54:15.103Z,12.82
2018-11-11T02:55:14.897Z,12.79
2018-11-11T02:56:15.095Z,12.73
2018-11-11T02:57:14.915Z,12.87
2018-11-11T02:58:14.882Z,12.86
2018-11-11T02:59:15.080Z,12.87
2018-11-11T03:00:14.899Z,12.94
2018-11-11T03:01:14.886Z,12.79
2018-11-11T03:02:14.894Z,12.93
2018-11-11T03:03:14.882Z,12.79
2018-11-11T03:04:14.897Z,12.83
2018-11-11T03:05:14.878Z,12.83
2018-11-11T03:06:14.882Z,12.85
2018-11-11T03:07:14.893Z,12.91
2018-11-11T03:08:15.094Z,12.85
2018-11-11T03:09:14.897Z,12.76
2018-11-11T03:10:15.082Z,12.76
2018-11-11T03:11:14.891Z,12.79
2018-11-11T03:12:15.075Z,12.76
2018-11-11T03:13:15.068Z,12.85
2018-11-11T03:14:14.861Z,12.76
2018-11-11T03:15:15.083Z,12.80
2018-11-11T03:16:15.076Z,12.78
2018-11-11T03:17:14.869Z,12.79
2018-11-11T03:18:14.856Z,12.72
2018-11-11T03:19:14.855Z,12.78
2018-11-11T03:20:14.871Z,12.75
2018-11-11T03:21:14.861Z,12.76
2018-11-11T03:22:14.852Z,12.76
2018-11-11T03:23:14.860Z,12.73
2018-11-11T03:24:15.061Z,12.73
2018-11-11T03:25:14.847Z,12.76
2018-11-11T03:26:14.858Z,12.78
2018-11-11T03:27:14.847Z,12.76
2018-11-11T03:28:14.856Z,12.78
2018-11-11T03:29:14.866Z,12.78
2018-11-11T03:30:14.870Z,12.76
2018-11-11T03:31:14.844Z,12.79
2018-11-11T03:32:15.071Z,12.75
2018-11-11T03:33:14.854Z,12.76
2018-11-11T03:34:14.840Z,12.73
2018-11-11T03:35:14.857Z,12.70
2018-11-11T03:36:14.838Z,12.73
2018-11-11T03:37:14.830Z,12.80
2018-11-11T03:38:14.865Z,12.76
2018-11-11T03:39:14.831Z,12.93
2018-11-11T03:40:15.036Z,12.87
2018-11-11T03:41:15.031Z,12.82
2018-11-11T03:42:14.828Z,12.86
2018-11-11T03:43:15.037Z,12.80
2018-11-11T03:44:14.826Z,12.83
2018-11-11T03:45:14.851Z,12.76
2018-11-11T03:46:14.822Z,12.94
2018-11-11T03:47:14.820Z,12.93
2018-11-11T03:48:14.821Z,12.86
2018-11-11T03:49:15.020Z,12.78
2018-11-11T03:50:14.837Z,12.85
2018-11-11T03:51:14.817Z,12.86
2018-11-11T03:52:14.825Z,12.85
2018-11-11T03:53:14.819Z,12.90
2018-11-11T03:54:14.836Z,12.78
2018-11-11T03:55:14.823Z,12.80
2018-11-11T03:56:14.809Z,12.80
2018-11-11T03:57:14.808Z,12.76
2018-11-11T03:58:14.811Z,12.76
2018-11-11T03:59:14.806Z,12.76
2018-11-11T04:00:14.807Z,12.76
2018-11-11T04:01:14.818Z,12.75
2018-11-11T04:02:14.801Z,12.75
2018-11-11T04:03:14.811Z,12.70
2018-11-11T04:04:14.810Z,12.80
2018-11-11T04:05:14.798Z,12.90
2018-11-11T04:06:14.826Z,12.82
2018-11-11T04:07:14.801Z,12.87
2018-11-11T04:08:14.795Z,12.90
2018-11-11T04:09:14.795Z,12.86
2018-11-11T04:10:14.858Z,12.86
2018-11-11T04:11:14.996Z,12.83
2018-11-11T04:12:14.838Z,12.86
2018-11-11T04:13:15.005Z,12.83
2018-11-11T04:14:15.017Z,12.86
2018-11-11T04:15:14.794Z,12.83
2018-11-11T04:16:14.783Z,12.85
2018-11-11T04:17:14.781Z,12.86
2018-11-11T04:18:14.804Z,12.80
2018-11-11T04:19:14.790Z,12.78
2018-11-11T04:20:14.779Z,12.78
2018-11-11T04:21:14.830Z,12.78
2018-11-11T04:22:14.805Z,12.83
2018-11-11T04:23:14.780Z,12.82
2018-11-11T04:24:14.795Z,12.91
2018-11-11T04:25:14.775Z,12.79
2018-11-11T04:26:14.783Z,12.90
2018-11-11T04:27:14.982Z,12.82
2018-11-11T04:28:14.770Z,12.80
2018-11-11T04:29:14.968Z,12.80
2018-11-11T04:30:14.764Z,12.86
2018-11-11T04:31:14.765Z,12.80
2018-11-11T04:32:14.763Z,12.76
2018-11-11T04:33:14.774Z,12.93
2018-11-11T04:34:14.963Z,12.82
2018-11-11T04:35:14.767Z,12.80
2018-11-11T04:36:14.977Z,12.79
2018-11-11T04:37:14.784Z,12.94
2018-11-11T04:38:14.774Z,12.98
2018-11-11T04:39:14.817Z,12.94
2018-11-11T04:40:14.772Z,12.85
2018-11-11T04:41:14.755Z,12.85
2018-11-11T04:42:14.761Z,12.95
2018-11-11T04:43:14.761Z,12.94
2018-11-11T04:44:14.749Z,12.90
2018-11-11T04:45:14.748Z,12.76
2018-11-11T04:46:14.775Z,12.79
2018-11-11T04:47:14.950Z,12.85
2018-11-11T04:48:14.961Z,12.85
2018-11-11T04:49:14.752Z,12.78
2018-11-11T04:50:14.743Z,12.87
2018-11-11T04:51:14.964Z,12.90
2018-11-11T04:52:14.941Z,12.76
2018-11-11T04:53:14.737Z,12.76
2018-11-11T04:54:14.739Z,12.97
2018-11-11T04:55:14.957Z,12.95
2018-11-11T04:56:14.736Z,12.97
2018-11-11T04:57:14.752Z,12.83
2018-11-11T04:58:14.739Z,12.87
2018-11-11T04:59:14.729Z,12.78
2018-11-11T05:00:14.726Z,12.85
2018-11-11T05:01:15.017Z,12.82
2018-11-11T05:02:14.727Z,12.83
2018-11-11T05:03:14.927Z,12.98
2018-11-11T05:04:14.721Z,12.95
2018-11-11T05:05:14.732Z,12.97
2018-11-11T05:06:14.736Z,12.97
2018-11-11T05:07:14.721Z,12.90
2018-11-11T05:08:14.715Z,12.97
2018-11-11T05:09:14.726Z,12.79
2018-11-11T05:10:14.713Z,12.76
2018-11-11T05:11:14.722Z,12.79
2018-11-11T05:12:14.722Z,12.80
2018-11-11T05:13:14.713Z,12.93
2018-11-11T05:14:14.729Z,12.94
2018-11-11T05:15:14.709Z,12.87
2018-11-11T05:16:14.718Z,12.79
2018-11-11T05:17:14.708Z,12.95
2018-11-11T05:18:14.703Z,12.93
2018-11-11T05:19:14.915Z,12.79
2018-11-11T05:20:14.923Z,12.90
2018-11-11T05:21:14.700Z,12.95
2018-11-11T05:22:14.917Z,12.87
2018-11-11T05:23:14.922Z,12.85
2018-11-11T05:24:14.706Z,12.80
2018-11-11T05:25:14.722Z,12.80
2018-11-11T05:26:14.910Z,12.72
2018-11-11T05:27:14.692Z,12.86
2018-11-11T05:28:14.894Z,12.82
2018-11-11T05:29:14.711Z,12.91
2018-11-11T05:30:14.699Z,12.91
2018-11-11T05:31:14.701Z,12.79
2018-11-11T05:32:14.703Z,12.86
2018-11-11T05:33:14.697Z,12.83
2018-11-11T05:34:14.682Z,12.78
2018-11-11T05:35:14.681Z,12.80
2018-11-11T05:36:14.693Z,12.85
2018-11-11T05:37:14.711Z,12.83
2018-11-11T05:38:14.880Z,12.78
2018-11-11T05:39:14.894Z,12.86
2018-11-11T05:40:14.683Z,12.86
2018-11-11T05:41:14.688Z,12.79
2018-11-11T05:42:14.689Z,12.75
2018-11-11T05:43:14.687Z,12.73
2018-11-11T05:44:14.875Z,12.75
2018-11-11T05:45:14.696Z,12.76
2018-11-11T05:46:14.683Z,12.65
2018-11-11T05:47:14.667Z,12.79
2018-11-11T05:48:14.684Z,12.65
2018-11-11T05:49:14.675Z,12.70
2018-11-11T05:50:14.693Z,12.65
2018-11-11T05:51:14.662Z,12.70
2018-11-11T05:52:14.667Z,12.79
2018-11-11T05:53:14.669Z,12.64
2018-11-11T05:54:14.656Z,12.65
2018-11-11T05:55:14.655Z,12.67
2018-11-11T05:56:14.653Z,12.65
2018-11-11T05:57:14.651Z,12.64
2018-11-11T05:58:14.649Z,12.76
2018-11-11T05:59:14.673Z,12.72
2018-11-11T06:00:14.652Z,12.75
2018-11-11T06:01:14.661Z,12.72
2018-11-11T06:02:14.674Z,12.68
2018-11-11T06:03:14.665Z,12.68
2018-11-11T06:04:14.856Z,12.76
2018-11-11T06:05:14.654Z,12.72
2018-11-11T06:06:14.653Z,12.76
2018-11-11T06:07:14.651Z,12.73
2018-11-11T06:08:14.636Z,12.70
2018-11-11T06:09:14.637Z,12.67
2018-11-11T06:10:14.666Z,12.68
2018-11-11T06:11:14.649Z,12.73
2018-11-11T06:12:14.657Z,12.75
2018-11-11T06:13:14.631Z,12.64
2018-11-11T06:14:14.652Z,12.72
2018-11-11T06:15:14.629Z,12.67
2018-11-11T06:16:14.639Z,12.72
2018-11-11T06:17:14.830Z,12.72
2018-11-11T06:18:14.622Z,12.76
2018-11-11T06:19:14.625Z,12.64
2018-11-11T06:20:14.622Z,12.61
2018-11-11T06:21:14.620Z,12.62
2018-11-11T06:22:14.632Z,12.64
2018-11-11T06:23:14.616Z,12.67
2018-11-11T06:24:14.635Z,12.61
2018-11-11T06:25:14.819Z,12.64
2018-11-11T06:26:14.630Z,12.64
2018-11-11T06:27:14.877Z,12.65
2018-11-11T06:28:14.615Z,12.70
2018-11-11T06:29:14.608Z,12.68
2018-11-11T06:30:14.622Z,12.73
2018-11-11T06:31:14.606Z,12.72
2018-11-11T06:32:14.607Z,12.76
2018-11-11T06:33:14.604Z,12.76
2018-11-11T06:34:14.732Z,12.73
2018-11-11T06:35:14.603Z,12.76
2018-11-11T06:36:14.613Z,12.75
2018-11-11T06:37:14.615Z,12.76
2018-11-11T06:38:14.801Z,12.85
2018-11-11T06:39:14.618Z,12.83
2018-11-11T06:40:14.633Z,12.85
2018-11-11T06:41:14.617Z,12.91
2018-11-11T06:42:14.593Z,12.87
2018-11-11T06:43:14.600Z,12.80
2018-11-11T06:44:14.596Z,12.82
2018-11-11T06:45:14.592Z,12.90
2018-11-11T06:46:14.592Z,12.82
2018-11-11T06:47:14.596Z,12.87
2018-11-11T06:48:14.684Z,12.95
2018-11-11T06:49:14.793Z,12.76
2018-11-11T06:50:14.592Z,12.90
2018-11-11T06:51:14.786Z,12.91
2018-11-11T06:52:14.590Z,12.80
2018-11-11T06:53:14.590Z,12.82
2018-11-11T06:54:14.790Z,12.85
2018-11-11T06:55:14.576Z,12.93
2018-11-11T06:56:14.786Z,12.85
2018-11-11T06:57:14.585Z,12.91
2018-11-11T06:58:14.688Z,12.85
2018-11-11T06:59:14.579Z,12.86
2018-11-11T07:00:14.575Z,12.93
2018-11-11T07:01:14.569Z,12.98
2018-11-11T07:02:14.571Z,12.87
2018-11-11T07:03:14.578Z,12.97
2018-11-11T07:04:14.779Z,12.86
2018-11-11T07:05:14.781Z,12.90
2018-11-11T07:06:14.577Z,12.79
2018-11-11T07:07:14.562Z,12.83
2018-11-11T07:08:14.559Z,12.79
2018-11-11T07:09:14.560Z,12.91
2018-11-11T07:10:14.557Z,12.91
2018-11-11T07:11:14.579Z,12.76
2018-11-11T07:12:14.554Z,12.86
2018-11-11T07:13:14.562Z,12.85
2018-11-11T07:14:14.660Z,12.91
2018-11-11T07:15:14.561Z,12.86
2018-11-11T07:16:14.549Z,12.83
2018-11-11T07:17:14.548Z,12.82
2018-11-11T07:18:14.550Z,12.76
2018-11-11T07:19:14.760Z,12.78
2018-11-11T07:20:14.774Z,12.93
2018-11-11T07:21:14.545Z,12.87
2018-11-11T07:22:14.551Z,12.86
2018-11-11T07:23:14.549Z,12.82
2018-11-11T07:24:14.635Z,12.91
2018-11-11T07:25:14.544Z,12.97
2018-11-11T07:26:14.536Z,12.91
2018-11-11T07:27:14.537Z,12.91
2018-11-11T07:28:14.535Z,12.82
2018-11-11T07:29:14.542Z,12.93
2018-11-11T07:30:14.531Z,12.82
2018-11-11T07:31:14.551Z,12.90
2018-11-11T07:32:14.543Z,12.82
2018-11-11T07:33:14.731Z,12.79
2018-11-11T07:34:14.529Z,12.83
2018-11-11T07:35:14.541Z,12.82
2018-11-11T07:36:14.541Z,12.91
2018-11-11T07:37:14.527Z,12.86
2018-11-11T07:38:14.531Z,12.91
2018-11-11T07:39:14.534Z,12.87
2018-11-11T07:40:14.523Z,12.83
2018-11-11T07:41:14.529Z,12.85
2018-11-11T07:42:14.525Z,12.76
2018-11-11T07:43:14.516Z,12.82
2018-11-11T07:44:14.730Z,12.85
2018-11-11T07:45:14.529Z,12.82
2018-11-11T07:46:14.524Z,12.83
2018-11-11T07:47:14.514Z,12.79
2018-11-11T07:48:14.514Z,12.82
2018-11-11T07:49:14.511Z,12.85
2018-11-11T07:50:14.522Z,12.90
2018-11-11T07:51:14.510Z,12.86
2018-11-11T07:52:14.523Z,12.91
2018-11-11T07:53:14.517Z,12.97
2018-11-11T07:54:14.511Z,13.01
2018-11-11T07:55:14.541Z,13.00
2018-11-11T07:56:14.536Z,13.03
2018-11-11T07:57:14.528Z,13.01
2018-11-11T07:58:14.554Z,13.01
2018-11-11T07:59:14.511Z,12.94
2018-11-11T08:00:14.551Z,12.93
2018-11-11T08:01:14.496Z,12.94
2018-11-11T08:02:14.629Z,13.00
2018-11-11T08:03:14.505Z,12.95
2018-11-11T08:04:14.506Z,12.93
2018-11-11T08:05:14.510Z,12.90
2018-11-11T08:06:14.500Z,12.95
2018-11-11T08:07:14.501Z,12.97
2018-11-11T08:08:14.493Z,12.97
2018-11-11T08:09:14.494Z,12.95
2018-11-11T08:10:14.500Z,13.00
2018-11-11T08:11:14.580Z,12.97
2018-11-11T08:12:14.498Z,13.01
2018-11-11T08:13:14.486Z,13.05
2018-11-11T08:14:14.481Z,13.00
2018-11-11T08:15:14.499Z,13.01
2018-11-11T08:16:14.497Z,12.97
2018-11-11T08:17:14.491Z,12.98
2018-11-11T08:18:14.498Z,13.08
2018-11-11T08:19:14.489Z,13.15
2018-11-11T08:20:14.478Z,13.09
2018-11-11T08:21:14.476Z,13.12
2018-11-11T08:22:14.479Z,13.12
2018-11-11T08:23:14.478Z,13.13
2018-11-11T08:24:14.473Z,13.15
2018-11-11T08:25:14.495Z,13.04
2018-11-11T08:26:14.491Z,13.15
2018-11-11T08:27:14.483Z,13.13
2018-11-11T08:28:14.470Z,13.09
2018-11-11T08:29:14.468Z,13.09
2018-11-11T08:30:14.466Z,13.12
2018-11-11T08:31:14.485Z,13.22
2018-11-11T08:32:14.477Z,13.15
2018-11-11T08:33:14.480Z,13.22
2018-11-11T08:34:14.462Z,13.23
2018-11-11T08:35:14.465Z,13.23
2018-11-11T08:36:14.470Z,13.20
2018-11-11T08:37:14.457Z,13.18
2018-11-11T08:38:14.489Z,13.20
2018-11-11T08:39:14.457Z,13.18
2018-11-11T08:40:14.483Z,13.09
2018-11-11T08:41:14.478Z,13.20
2018-11-11T08:42:14.464Z,13.27
2018-11-11T08:43:14.462Z,13.22
2018-11-11T08:44:14.488Z,13.22
2018-11-11T08:45:14.455Z,13.33
2018-11-11T08:46:14.467Z,13.27
2018-11-11T08:47:14.477Z,13.28
2018-11-11T08:48:14.456Z,13.27
2018-11-11T08:49:14.466Z,13.30
2018-11-11T08:50:14.447Z,13.27
2018-11-11T08:51:14.441Z,13.28
2018-11-11T08:52:14.456Z,13.23
2018-11-11T08:53:14.459Z,13.22
2018-11-11T08:54:14.454Z,13.28
2018-11-11T08:55:14.446Z,13.25
2018-11-11T08:56:14.439Z,13.25
2018-11-11T08:57:14.452Z,13.19
2018-11-11T08:58:14.567Z,13.22
2018-11-11T08:59:14.436Z,13.27
2018-11-11T09:00:14.460Z,13.31
2018-11-11T09:01:14.461Z,13.31
2018-11-11T09:02:14.449Z,13.28
2018-11-11T09:03:14.433Z,13.30
2018-11-11T09:04:14.428Z,13.38
2018-11-11T09:05:14.431Z,13.44
2018-11-11T09:06:14.451Z,13.47
2018-11-11T09:07:14.442Z,13.59
2018-11-11T09:08:14.432Z,13.75
2018-11-11T09:09:14.459Z,13.83
2018-11-11T09:10:14.434Z,14.00
2018-11-11T09:11:14.439Z,14.03
2018-11-11T09:12:14.447Z,14.22
2018-11-11T09:13:14.428Z,14.22
2018-11-11T09:14:14.460Z,14.30
2018-11-11T09:15:14.454Z,14.20
2018-11-11T09:16:14.433Z,14.20
2018-11-11T09:17:14.482Z,14.17
2018-11-11T09:18:14.430Z,14.17
2018-11-11T09:19:14.457Z,14.17
2018-11-11T09:20:14.419Z,14.15
2018-11-11T09:21:14.639Z,14.12
2018-11-11T09:22:14.443Z,14.18
2018-11-11T09:23:14.451Z,14.14
2018-11-11T09:24:14.430Z,14.15
2018-11-11T09:25:14.427Z,14.15
2018-11-11T09:26:14.428Z,14.18
2018-11-11T09:27:14.414Z,14.14
2018-11-11T09:28:14.420Z,14.18
2018-11-11T09:29:14.414Z,14.22
2018-11-11T09:30:14.440Z,14.17
2018-11-11T09:31:14.438Z,14.15
2018-11-11T09:32:14.431Z,14.22
2018-11-11T09:33:14.444Z,14.40
2018-11-11T09:34:14.412Z,14.45
2018-11-11T09:35:14.487Z,14.50
2018-11-11T09:36:14.412Z,14.53
2018-11-11T09:37:14.435Z,14.63
2018-11-11T09:38:14.409Z,14.63
2018-11-11T09:39:14.517Z,14.79
2018-11-11T09:40:14.429Z,14.78
2018-11-11T09:41:14.399Z,14.82
2018-11-11T09:42:14.451Z,14.73
2018-11-11T09:43:14.404Z,14.79
2018-11-11T09:44:14.398Z,14.79
2018-11-11T09:45:14.400Z,14.70
2018-11-11T09:46:14.399Z,14.69
2018-11-11T09:47:14.404Z,14.77
2018-11-11T09:48:14.396Z,14.78
2018-11-11T09:49:14.401Z,14.73
2018-11-11T09:50:14.407Z,14.73
2018-11-11T09:51:14.609Z,14.77
2018-11-11T09:52:14.405Z,14.86
2018-11-11T09:53:14.390Z,14.88
2018-11-11T09:54:14.431Z,14.94
2018-11-11T09:55:14.408Z,14.85
2018-11-11T09:56:14.392Z,14.92
2018-11-11T09:57:14.414Z,14.92
2018-11-11T09:58:14.403Z,14.77
2018-11-11T09:59:14.387Z,14.78
2018-11-11T10:00:14.596Z,14.77
2018-11-11T10:01:14.400Z,14.73
2018-11-11T10:02:14.403Z,14.60
2018-11-11T10:03:14.607Z,14.51
2018-11-11T10:04:14.391Z,14.51
2018-11-11T10:05:14.385Z,14.51
2018-11-11T10:06:14.410Z,14.44
2018-11-11T10:07:14.459Z,14.54
2018-11-11T10:08:14.413Z,14.50
2018-11-11T10:09:14.407Z,14.51
2018-11-11T10:10:14.397Z,14.41
2018-11-11T10:11:14.394Z,14.55
2018-11-11T10:12:14.434Z,14.47
2018-11-11T10:13:14.396Z,14.40
2018-11-11T10:14:14.408Z,14.43
2018-11-11T10:15:14.396Z,14.37
2018-11-11T10:16:14.382Z,14.37
2018-11-11T10:17:14.433Z,14.44
2018-11-11T10:18:14.418Z,14.36
2018-11-11T10:19:14.582Z,14.40
2018-11-11T10:20:14.648Z,14.47
2018-11-11T10:21:14.390Z,14.43
2018-11-11T10:22:14.407Z,14.43
2018-11-11T10:23:14.376Z,14.35
2018-11-11T10:24:14.384Z,14.51
2018-11-11T10:25:14.388Z,14.50
2018-11-11T10:26:14.594Z,14.53
2018-11-11T10:27:14.406Z,14.48
2018-11-11T10:28:14.376Z,14.51
2018-11-11T10:29:14.394Z,14.54
2018-11-11T10:30:14.377Z,14.55
2018-11-11T10:31:14.390Z,14.54
2018-11-11T10:32:14.583Z,14.53
2018-11-11T10:33:14.413Z,14.55
2018-11-11T10:34:14.379Z,14.66
2018-11-11T10:35:14.375Z,14.65
2018-11-11T10:36:14.373Z,14.69
2018-11-11T10:37:14.391Z,14.69
2018-11-11T10:38:14.373Z,14.77
2018-11-11T10:39:14.437Z,14.84
2018-11-11T10:40:14.385Z,14.89
2018-11-11T10:41:14.396Z,14.96
2018-11-11T10:42:14.370Z,14.89
2018-11-11T10:43:14.373Z,15.02
2018-11-11T10:44:14.434Z,15.02
2018-11-11T10:45:14.374Z,15.04
2018-11-11T10:46:14.373Z,14.99
2018-11-11T10:47:14.380Z,15.02
2018-11-11T10:48:14.383Z,15.09
2018-11-11T10:49:14.576Z,15.14
2018-11-11T10:50:14.402Z,15.09
2018-11-11T10:51:14.586Z,15.17
2018-11-11T10:52:14.372Z,15.11
2018-11-11T10:53:14.398Z,15.11
2018-11-11T10:54:14.622Z,15.06
2018-11-11T10:55:14.369Z,15.02
2018-11-11T10:56:14.384Z,15.07
2018-11-11T10:57:14.380Z,14.97
2018-11-11T10:58:14.374Z,14.97
2018-11-11T10:59:14.369Z,14.91
2018-11-11T11:00:14.399Z,14.96
2018-11-11T11:01:14.381Z,14.85
2018-11-11T11:02:14.384Z,14.88
2018-11-11T11:03:14.379Z,14.81
2018-11-11T11:04:14.388Z,14.81
2018-11-11T11:05:14.382Z,14.79
2018-11-11T11:06:14.502Z,14.79
2018-11-11T11:07:14.369Z,14.77
2018-11-11T11:08:14.377Z,14.79
2018-11-11T11:09:14.377Z,14.84
2018-11-11T11:10:14.386Z,14.85
2018-11-11T11:11:14.379Z,14.92
2018-11-11T11:12:14.396Z,14.92
2018-11-11T11:13:14.376Z,14.86
2018-11-11T11:14:14.376Z,14.88
2018-11-11T11:15:14.366Z,14.92
2018-11-11T11:16:14.389Z,14.85
2018-11-11T11:17:14.381Z,14.94
2018-11-11T11:18:14.364Z,14.86
2018-11-11T11:19:14.368Z,14.89
2018-11-11T11:20:14.363Z,14.91
2018-11-11T11:21:14.362Z,14.88
2018-11-11T11:22:14.382Z,14.85
2018-11-11T11:23:14.384Z,14.92
2018-11-11T11:24:14.362Z,14.92
2018-11-11T11:25:14.364Z,14.94
2018-11-11T11:26:14.376Z,15.00
2018-11-11T11:27:14.452Z,15.07
2018-11-11T11:28:14.377Z,15.06
2018-11-11T11:29:14.577Z,14.97
2018-11-11T11:30:14.392Z,15.11
2018-11-11T11:31:14.440Z,15.11
2018-11-11T11:32:14.525Z,15.15
2018-11-11T11:33:14.386Z,15.11
2018-11-11T11:34:14.363Z,15.04
2018-11-11T11:35:14.380Z,15.02
2018-11-11T11:36:14.367Z,15.02
2018-11-11T11:37:14.362Z,15.02
2018-11-11T11:38:14.447Z,14.99
2018-11-11T11:39:14.359Z,14.96
2018-11-11T11:40:14.361Z,14.91
2018-11-11T11:41:14.382Z,14.91
2018-11-11T11:42:14.377Z,14.92
2018-11-11T11:43:14.371Z,14.92
2018-11-11T11:44:14.472Z,14.97
2018-11-11T11:45:14.421Z,14.88
2018-11-11T11:46:14.420Z,14.86
2018-11-11T11:47:14.409Z,14.89
2018-11-11T11:48:14.362Z,14.88
2018-11-11T11:49:14.386Z,14.92
2018-11-11T11:50:14.424Z,14.96
2018-11-11T11:51:14.358Z,14.96
2018-11-11T11:52:14.438Z,14.92
2018-11-11T11:53:14.364Z,14.97
2018-11-11T11:54:14.379Z,14.86
2018-11-11T11:55:14.371Z,14.92
2018-11-11T11:56:14.389Z,14.89
2018-11-11T11:57:14.370Z,14.86
2018-11-11T11:58:14.461Z,14.89
2018-11-11T11:59:14.358Z,14.84
2018-11-11T12:00:14.372Z,14.86
2018-11-11T12:01:14.358Z,14.88
2018-11-11T12:02:14.664Z,14.73
2018-11-11T12:03:14.357Z,14.77
2018-11-11T12:04:14.384Z,14.85
2018-11-11T12:05:14.389Z,14.88
2018-11-11T12:06:14.366Z,14.91
2018-11-11T12:07:14.358Z,14.92
2018-11-11T12:08:14.359Z,14.84
2018-11-11T12:09:14.410Z,14.92
2018-11-11T12:10:14.370Z,14.94
2018-11-11T12:11:14.359Z,14.91
2018-11-11T12:12:14.365Z,14.89
2018-11-11T12:13:14.355Z,14.89
2018-11-11T12:14:14.367Z,14.92
2018-11-11T12:15:14.367Z,14.89
2018-11-11T12:16:14.356Z,14.88
2018-11-11T12:17:14.425Z,14.96
2018-11-11T12:18:14.356Z,14.89
2018-11-11T12:19:14.371Z,14.88
2018-11-11T12:20:14.361Z,14.88
2018-11-11T12:21:14.354Z,14.94
2018-11-11T12:22:14.362Z,14.96
2018-11-11T12:23:14.387Z,14.92
2018-11-11T12:24:14.358Z,14.81
2018-11-11T12:25:14.377Z,14.92
2018-11-11T12:26:14.363Z,14.82
2018-11-11T12:27:14.356Z,14.77
2018-11-11T12:28:14.365Z,14.81
2018-11-11T12:29:14.352Z,14.79
2018-11-11T12:30:14.376Z,14.77
2018-11-11T12:31:14.363Z,14.81
2018-11-11T12:32:14.362Z,14.82
2018-11-11T12:33:14.351Z,14.77
2018-11-11T12:34:14.361Z,14.82
2018-11-11T12:35:14.354Z,14.73
2018-11-11T12:36:14.352Z,14.70
2018-11-11T12:37:14.354Z,14.79
2018-11-11T12:38:14.352Z,14.73
2018-11-11T12:39:14.490Z,14.81
2018-11-11T12:40:14.708Z,14.82
2018-11-11T12:41:14.377Z,14.73
2018-11-11T12:42:14.363Z,14.82
2018-11-11T12:43:14.376Z,14.73
2018-11-11T12:44:14.371Z,14.81
2018-11-11T12:45:14.347Z,14.85
2018-11-11T12:46:14.374Z,14.78
2018-11-11T12:47:14.368Z,14.72
2018-11-11T12:48:14.363Z,14.81
2018-11-11T12:49:14.422Z,14.78
2018-11-11T12:50:14.435Z,14.72
2018-11-11T12:51:14.347Z,14.81
2018-11-11T12:52:14.349Z,14.78